Time;durP1;ratioP1;P1;durP2;ratioP2;P2;SDS_P1;SDS_P2;PMS_P1;PMS_P2;Temp;Humidity;BMP_temperature;BMP_pressure;BME280_temperature;BME280_humidity;BME280_pressure;Samples;Min_cycle;Max_cycle;Signal;HPM_P1;HPM_P2
2023/04/27 00:00:45;;;;;;;3.08;2.05;;;;;;;4.06;71.59;101992.88;5052125;28;20033;-85
2023/04/27 00:03:11;;;;;;;3.15;2.10;;;;;;;4.03;71.68;101997.97;5052329;28;20043;-85
2023/04/27 00:05:37;;;;;;;2.25;2.03;;;;;;;4.00;71.23;102008.13;5051657;28;20100;-85
2023/04/27 00:08:06;;;;;;;4.35;2.15;;;;;;;3.95;71.33;102005.44;5052009;28;20021;-85
2023/04/27 00:10:32;;;;;;;2.30;2.10;;;;;;;3.91;71.84;101997.59;5052327;28;20029;-85
2023/04/27 00:12:58;;;;;;;2.42;2.22;;;;;;;3.85;72.39;101991.41;5051670;28;20043;-85
2023/04/27 00:15:23;;;;;;;2.33;2.13;;;;;;;3.84;72.36;102002.50;5051953;28;20025;-84
2023/04/27 00:17:48;;;;;;;2.38;2.10;;;;;;;3.82;72.34;102000.72;5051999;28;20045;-83
2023/04/27 00:20:14;;;;;;;2.42;2.20;;;;;;;3.76;72.27;102003.97;5052260;28;20107;-85
2023/04/27 00:22:40;;;;;;;2.63;2.10;;;;;;;3.74;72.44;101999.63;5052061;28;20040;-85
2023/04/27 00:25:06;;;;;;;4.13;2.60;;;;;;;3.69;72.86;101995.19;5051594;28;20028;-85
2023/04/27 00:27:31;;;;;;;3.15;2.30;;;;;;;3.65;72.61;101995.94;5051659;28;20021;-85
2023/04/27 00:29:56;;;;;;;3.77;2.30;;;;;;;3.61;72.76;102006.03;5051977;28;20115;-85
2023/04/27 00:32:21;;;;;;;3.83;2.50;;;;;;;3.55;72.86;101994.78;5050844;28;20029;-85
2023/04/27 00:34:47;;;;;;;2.83;2.30;;;;;;;3.53;73.38;102001.53;5052004;28;20029;-85
2023/04/27 00:37:12;;;;;;;2.88;2.40;;;;;;;3.52;72.99;102006.63;5051796;28;20060;-85
2023/04/27 00:39:37;;;;;;;3.60;2.33;;;;;;;3.44;73.42;101998.69;5050902;28;20032;-84
2023/04/27 00:42:03;;;;;;;2.35;2.15;;;;;;;3.46;73.21;102002.19;5052185;28;20063;-84
2023/04/27 00:44:29;;;;;;;3.40;2.45;;;;;;;3.42;73.05;101994.34;5051968;28;20108;-84
2023/04/27 00:46:55;;;;;;;3.85;2.53;;;;;;;3.42;73.24;102002.03;5051543;28;20025;-85
2023/04/27 00:49:21;;;;;;;2.78;2.10;;;;;;;3.39;73.22;102007.91;5051964;28;20036;-84
2023/04/27 00:51:47;;;;;;;3.33;2.20;;;;;;;3.34;73.46;101996.63;5051947;28;20025;-85
2023/04/27 00:54:18;;;;;;;3.00;2.17;;;;;;;3.33;73.67;101994.91;5050958;28;20013;-85
2023/04/27 00:56:46;;;;;;;3.20;2.40;;;;;;;3.31;73.98;101996.53;5051950;28;20498;-85
2023/04/27 00:59:11;;;;;;;2.45;2.08;;;;;;;3.29;73.69;101988.78;5051777;28;20112;-85
2023/04/27 01:01:37;;;;;;;4.22;2.42;;;;;;;3.26;73.77;101998.09;5050556;28;20129;-85
2023/04/27 01:04:05;;;;;;;3.05;2.05;;;;;;;3.18;73.80;101978.16;5054278;28;20029;-85
2023/04/27 01:06:30;;;;;;;3.30;2.20;;;;;;;3.22;74.04;101995.41;5055368;28;20033;-85
2023/04/27 01:08:56;;;;;;;2.65;2.20;;;;;;;3.17;73.89;101996.06;5055022;28;20081;-86
2023/04/27 01:11:22;;;;;;;4.80;2.50;;;;;;;3.15;73.93;101992.56;5055731;28;20150;-86
2023/04/27 01:13:47;;;;;;;2.70;2.28;;;;;;;3.15;74.18;102000.28;5057490;28;20032;-85
2023/04/27 01:16:13;;;;;;;3.55;2.40;;;;;;;3.11;74.69;101991.59;5056845;28;20090;-85
2023/04/27 01:18:39;;;;;;;3.47;2.50;;;;;;;3.09;74.36;102000.94;5054802;28;20033;-85
2023/04/27 01:21:05;;;;;;;3.22;2.30;;;;;;;3.06;74.61;102003.38;5055616;28;20436;-85
2023/04/27 01:23:30;;;;;;;2.58;2.35;;;;;;;3.05;74.43;102002.53;5054678;28;20029;-85
2023/04/27 01:25:55;;;;;;;3.13;2.38;;;;;;;2.99;74.36;102004.00;5055165;28;20565;-85
2023/04/27 01:28:21;;;;;;;3.45;2.40;;;;;;;3.00;74.53;102008.31;5053765;28;20484;-85
2023/04/27 01:30:46;;;;;;;3.47;2.40;;;;;;;2.96;74.91;102004.78;5055441;28;20470;-85
2023/04/27 01:33:11;;;;;;;3.58;2.50;;;;;;;2.93;74.66;102008.09;5055310;28;20381;-85
2023/04/27 01:35:36;;;;;;;3.45;2.30;;;;;;;2.91;75.25;102001.16;5054095;28;20504;-85
2023/04/27 01:38:02;;;;;;;3.33;2.33;;;;;;;2.89;74.56;102006.25;5054726;28;20032;-85
2023/04/27 01:40:27;;;;;;;2.97;2.20;;;;;;;2.81;74.80;101989.75;5054499;28;20036;-85
2023/04/27 01:42:52;;;;;;;3.20;2.28;;;;;;;2.80;75.02;101990.56;5054118;28;20032;-85
2023/04/27 01:45:18;;;;;;;3.63;2.47;;;;;;;2.80;75.16;101998.25;5054619;28;20029;-85
2023/04/27 01:47:43;;;;;;;3.60;2.53;;;;;;;2.78;75.37;101997.31;5054918;28;20047;-85
2023/04/27 01:50:08;;;;;;;3.97;2.30;;;;;;;2.72;75.24;101994.50;5054319;28;20025;-86
2023/04/27 01:52:34;;;;;;;4.10;2.30;;;;;;;2.71;75.41;102000.47;5054307;28;20083;-85
2023/04/27 01:54:59;;;;;;;2.95;2.40;;;;;;;2.68;75.48;101996.09;5054632;28;20025;-84
2023/04/27 01:57:25;;;;;;;3.80;2.40;;;;;;;2.62;75.30;101994.19;5053495;28;20040;-85
2023/04/27 01:59:50;;;;;;;3.03;2.50;;;;;;;2.57;76.06;101989.72;5054700;28;20100;-85
2023/04/27 02:02:16;;;;;;;5.05;2.80;;;;;;;2.53;75.67;101991.31;5035815;28;20567;-84
2023/04/27 02:04:42;;;;;;;3.90;2.60;;;;;;;2.50;75.88;101987.75;5033705;28;20021;-85
2023/04/27 02:07:07;;;;;;;3.33;2.40;;;;;;;2.49;76.19;101992.00;5034861;28;20017;-85
2023/04/27 02:09:32;;;;;;;3.28;2.50;;;;;;;2.45;76.48;101983.31;5034319;28;20037;-85
2023/04/27 02:11:58;;;;;;;2.90;2.28;;;;;;;2.42;75.95;101979.78;5033655;28;20034;-85
2023/04/27 02:14:23;;;;;;;3.15;2.40;;;;;;;2.42;76.15;101984.91;5033604;28;20053;-85
2023/04/27 02:16:48;;;;;;;3.85;2.60;;;;;;;2.30;76.40;101969.97;5033868;28;20120;-85
2023/04/27 02:19:13;;;;;;;2.90;2.33;;;;;;;2.39;76.56;101988.25;5032952;28;20108;-85
2023/04/27 02:21:39;;;;;;;3.83;2.40;;;;;;;2.39;76.31;101987.34;5033782;28;20033;-85
2023/04/27 02:24:08;;;;;;;4.32;2.40;;;;;;;2.34;76.42;101978.63;5034063;28;20036;-85
2023/04/27 02:26:33;;;;;;;3.78;2.63;;;;;;;2.31;76.88;101977.72;5032959;28;20028;-85
2023/04/27 02:28:58;;;;;;;5.80;2.70;;;;;;;2.25;80.96;101971.47;5033845;28;20033;-85
2023/04/27 02:31:24;;;;;;;5.40;3.30;;;;;;;2.21;79.46;101965.38;5033650;28;20029;-85
2023/04/27 02:33:49;;;;;;;6.88;3.00;;;;;;;2.18;83.09;101965.25;5033346;28;20460;-85
2023/04/27 02:36:14;;;;;;;6.20;3.20;;;;;;;2.14;82.08;101963.38;5033787;28;20530;-85
2023/04/27 02:38:40;;;;;;;5.65;3.40;;;;;;;2.11;80.83;101963.28;5032788;28;20037;-85
2023/04/27 02:41:05;;;;;;;5.38;3.20;;;;;;;2.11;79.57;101964.16;5033580;28;20022;-85
2023/04/27 02:43:30;;;;;;;6.60;3.38;;;;;;;2.09;83.47;101963.22;5033180;28;20045;-85
2023/04/27 02:45:56;;;;;;;6.95;4.00;;;;;;;2.02;84.52;101951.00;5033122;28;20021;-85
2023/04/27 02:48:21;;;;;;;5.65;3.15;;;;;;;2.02;81.06;101957.81;5033340;28;20107;-85
2023/04/27 02:50:49;;;;;;;4.90;2.95;;;;;;;2.02;79.62;101965.50;5033870;28;20025;-85
2023/04/27 02:53:14;;;;;;;4.72;3.10;;;;;;;2.01;79.20;101962.06;5032702;28;20029;-85
2023/04/27 02:55:46;;;;;;;4.05;2.97;;;;;;;2.02;79.30;101971.47;5032804;28;20026;-85
2023/04/27 02:58:12;;;;;;;4.22;2.72;;;;;;;2.00;78.91;101971.44;5033625;28;20040;-85
2023/04/27 03:00:39;;;;;;;3.42;2.60;;;;;;;2.03;79.00;101973.22;5037527;28;20041;-85
2023/04/27 03:03:05;;;;;;;3.72;2.50;;;;;;;2.02;78.71;101973.19;5053320;28;20439;-85
2023/04/27 03:05:30;;;;;;;3.72;2.70;;;;;;;1.99;79.15;101972.25;5053229;28;20108;-85
2023/04/27 03:07:55;;;;;;;3.90;2.60;;;;;;;1.96;78.89;101963.59;5051670;28;20386;-85
2023/04/27 03:10:21;;;;;;;3.47;2.47;;;;;;;1.94;80.21;101958.38;5052793;28;20032;-85
2023/04/27 03:12:46;;;;;;;4.45;2.70;;;;;;;1.91;79.52;101958.28;5053026;28;20032;-85
2023/04/27 03:15:11;;;;;;;3.40;2.40;;;;;;;1.93;79.81;101958.34;5052612;28;20029;-85
2023/04/27 03:17:37;;;;;;;3.10;2.30;;;;;;;1.88;81.12;101958.16;5052644;28;20025;-85
2023/04/27 03:20:03;;;;;;;3.60;2.40;;;;;;;1.84;79.52;101949.50;5052888;28;20029;-85
2023/04/27 03:22:29;;;;;;;2.72;2.33;;;;;;;1.88;79.90;101962.41;5051807;28;20029;-85
2023/04/27 03:24:54;;;;;;;2.80;2.10;;;;;;;1.86;80.30;101962.34;5052929;28;20013;-85
2023/04/27 03:27:20;;;;;;;5.35;2.78;;;;;;;1.87;82.32;101963.22;5053087;28;20029;-86
2023/04/27 03:29:52;;;;;;;3.17;2.40;;;;;;;1.89;80.41;101964.13;5052360;28;20029;-85
2023/04/27 03:32:17;;;;;;;4.53;2.70;;;;;;;1.88;79.87;101970.06;5052878;28;20032;-85
2023/04/27 03:34:42;;;;;;;3.25;2.50;;;;;;;1.85;79.80;101971.72;5052600;28;20021;-85
2023/04/27 03:37:08;;;;;;;5.15;2.80;;;;;;;1.86;84.18;101980.25;5051697;28;20501;-85
2023/04/27 03:39:33;;;;;;;4.80;2.90;;;;;;;1.80;81.13;101982.59;5052177;28;20474;-85
2023/04/27 03:41:58;;;;;;;6.32;2.80;;;;;;;1.83;80.46;101986.16;5052069;28;20063;-85
2023/04/27 03:44:24;;;;;;;4.80;2.80;;;;;;;1.84;80.50;101984.44;5051804;28;20374;-85
2023/04/27 03:46:49;;;;;;;4.25;2.75;;;;;;;1.84;81.63;101985.34;5052560;28;20124;-85
2023/04/27 03:49:14;;;;;;;9.70;3.95;;;;;;;1.79;86.65;101983.41;5051727;28;20036;-85
2023/04/27 03:51:42;;;;;;;7.90;4.05;;;;;;;1.75;85.08;101984.09;5052671;28;20376;-85
2023/04/27 03:54:08;;;;;;;6.63;3.90;;;;;;;1.73;83.68;101986.59;5052886;28;20051;-85
2023/04/27 03:56:34;;;;;;;7.33;3.67;;;;;;;1.67;84.11;101978.66;5056358;28;20025;-85
2023/04/27 03:58:59;;;;;;;14.10;5.53;;;;;;;1.65;88.38;101985.41;5056009;28;20036;-86
2023/04/27 04:01:25;;;;;;;11.23;5.30;;;;;;;1.60;88.82;101984.38;5046327;28;20041;-85
2023/04/27 04:03:53;;;;;;;13.23;5.30;;;;;;;1.60;87.16;101985.22;5035835;28;20029;-85
2023/04/27 04:06:18;;;;;;;10.05;4.60;;;;;;;1.63;85.43;101993.03;5033065;28;20160;-85
2023/04/27 04:08:43;;;;;;;8.45;4.00;;;;;;;1.63;84.12;101992.16;5032244;28;20120;-85
2023/04/27 04:11:09;;;;;;;7.60;3.63;;;;;;;1.63;83.59;101995.59;5031953;28;20033;-85
2023/04/27 04:13:34;;;;;;;7.53;3.80;;;;;;;1.64;84.60;101987.09;5032451;28;20051;-85
2023/04/27 04:16:08;;;;;;;7.47;3.67;;;;;;;1.62;86.83;101986.16;5032629;28;20465;-85
2023/04/27 04:18:34;;;;;;;7.60;3.90;;;;;;;1.62;85.36;101992.97;5031561;28;20521;-85
2023/04/27 04:20:59;;;;;;;6.37;3.70;;;;;;;1.62;84.29;101998.09;5032550;28;20041;-85
2023/04/27 04:23:26;;;;;;;9.85;3.85;;;;;;;1.60;87.56;101995.47;5032226;28;20076;-85
2023/04/27 04:25:51;;;;;;;7.18;3.90;;;;;;;1.59;85.38;101998.81;5031945;28;20025;-85
2023/04/27 04:28:16;;;;;;;5.13;3.10;;;;;;;1.57;84.16;101997.03;5032008;28;20161;-86
2023/04/27 04:30:42;;;;;;;5.00;3.00;;;;;;;1.59;83.10;101996.25;5032418;28;20021;-86
2023/04/27 04:33:08;;;;;;;5.13;3.00;;;;;;;1.58;82.89;102004.75;5031314;28;20029;-85
2023/04/27 04:35:37;;;;;;;6.63;3.30;;;;;;;1.61;83.92;101999.75;5032184;28;20484;-85
2023/04/27 04:38:02;;;;;;;5.10;2.97;;;;;;;1.64;83.05;102010.13;5033292;28;20037;-85
2023/04/27 04:40:27;;;;;;;5.10;2.95;;;;;;;1.64;83.79;102004.13;5035180;28;20025;-85
2023/04/27 04:42:55;;;;;;;4.85;2.60;;;;;;;1.65;83.19;102008.44;5036234;28;20017;-85
2023/04/27 04:45:21;;;;;;;5.85;3.17;;;;;;;1.65;84.49;102011.00;5035061;28;20026;-85
2023/04/27 04:47:48;;;;;;;5.32;3.17;;;;;;;1.68;82.91;102018.81;5036134;28;20103;-85
2023/04/27 04:50:13;;;;;;;3.72;2.50;;;;;;;1.67;85.33;102017.06;5035689;28;20429;-85
2023/04/27 04:52:38;;;;;;;5.97;3.10;;;;;;;1.66;85.21;102012.75;5034849;28;20037;-85
2023/04/27 04:55:04;;;;;;;6.57;3.30;;;;;;;1.71;85.21;102016.38;5035842;28;20079;-85
2023/04/27 04:57:30;;;;;;;6.10;3.33;;;;;;;1.67;86.57;102006.81;5034974;28;20511;-84
2023/04/27 04:59:55;;;;;;;7.22;3.78;;;;;;;1.69;87.11;102013.72;5035003;28;20033;-85
2023/04/27 05:02:21;;;;;;;8.93;4.55;;;;;;;1.74;85.20;102015.63;5035333;28;20091;-84
2023/04/27 05:04:46;;;;;;;8.52;4.20;;;;;;;1.79;84.74;102017.53;5035590;28;20436;-84
2023/04/27 05:07:12;;;;;;;10.68;4.60;;;;;;;1.76;88.40;102017.41;5034820;28;20026;-84
2023/04/27 05:09:37;;;;;;;13.48;6.15;;;;;;;1.79;89.75;102032.03;5035109;28;20025;-84
2023/04/27 05:12:03;;;;;;;17.05;7.20;;;;;;;1.75;90.63;102023.34;5035920;28;20546;-84
2023/04/27 05:14:28;;;;;;;15.43;6.70;;;;;;;1.83;90.15;102033.91;5034671;28;20079;-85
2023/04/27 05:16:54;;;;;;;14.48;6.57;;;;;;;1.84;90.15;102028.84;5035459;28;20382;-85
2023/04/27 05:19:19;;;;;;;14.75;6.55;;;;;;;1.87;88.61;102028.09;5034951;28;20025;-85
2023/04/27 05:21:45;;;;;;;11.75;5.57;;;;;;;1.89;89.02;102023.91;5034616;28;20544;-84
2023/04/27 05:24:11;;;;;;;13.93;6.00;;;;;;;1.91;89.65;102022.28;5035215;28;20031;-84
2023/04/27 05:26:37;;;;;;;12.52;6.00;;;;;;;1.97;89.44;102021.66;5035224;28;20377;-84
2023/04/27 05:29:06;;;;;;;12.85;5.80;;;;;;;1.99;88.71;102023.47;5033563;28;20025;-84
2023/04/27 05:31:33;;;;;;;12.98;5.88;;;;;;;2.05;89.31;102027.06;5034386;28;20044;-84
2023/04/27 05:33:58;;;;;;;12.68;5.63;;;;;;;2.08;88.13;102029.75;5035233;28;20022;-84
2023/04/27 05:36:24;;;;;;;12.02;5.00;;;;;;;2.07;88.21;102026.31;5034107;28;20052;-84
2023/04/27 05:38:49;;;;;;;13.23;5.82;;;;;;;2.16;88.53;102023.22;5034824;28;20151;-85
2023/04/27 05:41:14;;;;;;;13.07;6.00;;;;;;;2.26;88.59;102029.59;5034983;28;20144;-85
2023/04/27 05:43:40;;;;;;;11.48;5.40;;;;;;;2.26;85.93;102024.47;5034177;28;20026;-84
2023/04/27 05:46:05;;;;;;;11.38;5.00;;;;;;;2.37;86.03;102037.66;5035017;28;20033;-83
2023/04/27 05:48:30;;;;;;;10.00;4.50;;;;;;;2.43;86.54;102035.34;5033824;28;20477;-83
2023/04/27 05:51:00;;;;;;;16.00;6.20;;;;;;;2.45;88.50;102038.84;5033989;28;20389;-84
2023/04/27 05:53:26;;;;;;;14.90;6.35;;;;;;;2.53;87.64;102045.13;5034985;28;20037;-84
2023/04/27 05:55:51;;;;;;;14.30;6.32;;;;;;;2.55;87.41;102038.38;5034408;28;20466;-84
2023/04/27 05:58:16;;;;;;;10.57;5.10;;;;;;;2.66;85.53;102048.13;5034433;28;20124;-84
2023/04/27 06:00:45;;;;;;;11.95;5.65;;;;;;;2.68;87.90;102041.38;5034171;28;20100;-85
2023/04/27 06:03:10;;;;;;;12.70;5.82;;;;;;;2.75;87.26;102035.66;5034202;28;20486;-85
2023/04/27 06:05:38;;;;;;;15.20;6.22;;;;;;;2.84;86.40;102037.69;5034448;28;20075;-85
2023/04/27 06:08:04;;;;;;;12.98;5.70;;;;;;;2.88;85.14;102032.72;5034435;28;20025;-86
2023/04/27 06:10:29;;;;;;;10.07;4.88;;;;;;;2.98;84.69;102040.72;5033728;28;20037;-85
2023/04/27 06:12:54;;;;;;;11.57;5.25;;;;;;;3.04;85.16;102046.09;5034833;28;20531;-84
2023/04/27 06:15:20;;;;;;;11.60;5.15;;;;;;;3.14;85.36;102047.25;5034311;28;20366;-84
2023/04/27 06:17:45;;;;;;;11.75;5.35;;;;;;;3.22;83.80;102043.25;5033694;28;20071;-84
2023/04/27 06:20:11;;;;;;;9.40;4.90;;;;;;;3.28;83.92;102040.94;5034446;28;20339;-84
2023/04/27 06:22:37;;;;;;;9.35;4.43;;;;;;;3.37;84.46;102041.22;5034004;28;20098;-84
2023/04/27 06:25:04;;;;;;;11.00;4.90;;;;;;;3.46;84.62;102034.66;5033564;28;20071;-85
2023/04/27 06:27:30;;;;;;;11.60;4.95;;;;;;;3.58;83.04;102040.19;5034204;28;20035;-84
2023/04/27 06:29:55;;;;;;;12.25;5.45;;;;;;;3.69;84.26;102035.44;5034006;28;20108;-87
2023/04/27 06:32:20;;;;;;;13.35;5.75;;;;;;;3.81;83.36;102028.13;5033405;28;20385;-81
2023/04/27 06:34:46;;;;;;;10.35;4.97;;;;;;;3.95;82.29;102030.22;5033853;28;20048;-81
2023/04/27 06:37:12;;;;;;;7.70;4.28;;;;;;;4.11;82.09;102036.72;5034152;28;20025;-83
2023/04/27 06:39:37;;;;;;;10.95;5.22;;;;;;;4.29;80.64;102023.53;5033163;28;20116;-81
2023/04/27 06:42:03;;;;;;;9.75;5.28;;;;;;;4.37;79.68;102040.09;5034050;28;20048;-84
2023/04/27 06:44:29;;;;;;;10.38;4.80;;;;;;;4.51;80.88;102042.16;5033638;28;20032;-85
2023/04/27 06:46:54;;;;;;;10.15;5.22;;;;;;;4.68;78.84;102033.25;5033245;28;20022;-81
2023/04/27 06:49:20;;;;;;;9.48;4.82;;;;;;;4.83;78.91;102037.94;5033707;28;20382;-82
2023/04/27 06:51:45;;;;;;;8.83;4.77;;;;;;;5.22;80.36;102038.97;5033110;28;20478;-82
2023/04/27 06:54:11;;;;;;;10.18;4.72;;;;;;;6.72;74.63;102033.84;5033711;28;20096;-81
2023/04/27 06:56:36;;;;;;;8.95;4.55;;;;;;;8.60;70.96;102029.94;5033274;28;20026;-81
2023/04/27 06:59:01;;;;;;;7.90;4.78;;;;;;;9.88;68.51;102032.84;5032939;28;20082;-80
2023/04/27 07:01:27;;;;;;;6.37;3.90;;;;;;;10.94;63.24;102029.88;5042207;28;20123;-80
2023/04/27 07:03:52;;;;;;;9.17;4.27;;;;;;;12.63;59.25;102015.81;5053481;28;20052;-81
2023/04/27 07:06:17;;;;;;;9.88;4.30;;;;;;;13.65;56.35;102032.50;5052641;28;20389;-81
2023/04/27 07:08:43;;;;;;;8.07;4.27;;;;;;;13.96;52.67;102029.59;5053092;28;20043;-81
2023/04/27 07:11:08;;;;;;;8.70;4.30;;;;;;;13.79;51.94;102020.19;5053221;28;20025;-81
2023/04/27 07:13:33;;;;;;;7.50;4.33;;;;;;;13.38;50.56;102030.09;5052254;28;20025;-81
2023/04/27 07:16:00;;;;;;;10.17;4.33;;;;;;;12.89;53.39;102027.81;5053241;28;20029;-81
2023/04/27 07:18:27;;;;;;;8.40;4.32;;;;;;;12.03;55.64;102015.16;5052886;28;20535;-82
2023/04/27 07:20:52;;;;;;;;;;;;;;;11.31;57.94;102029.09;5052901;28;20040;-83
2023/04/27 07:23:17;;;;;;;13.17;5.67;;;;;;;10.41;58.34;102025.38;5053094;28;20364;-83
2023/04/27 07:25:44;;;;;;;11.30;5.17;;;;;;;9.86;60.52;102029.38;5052997;28;20013;-83
2023/04/27 07:28:09;;;;;;;11.38;5.20;;;;;;;9.26;58.81;102030.66;5052053;28;20066;-83
2023/04/27 07:30:35;;;;;;;14.53;6.20;;;;;;;8.72;60.99;102032.66;5052857;28;20033;-82
2023/04/27 07:33:01;;;;;;;10.77;5.60;;;;;;;8.50;63.51;102034.09;5052988;28;20021;-83
2023/04/27 07:35:30;;;;;;;9.17;4.90;;;;;;;8.43;63.30;102028.00;5052152;28;20094;-83
2023/04/27 07:37:56;;;;;;;11.18;4.82;;;;;;;8.38;64.64;102034.81;5052914;28;20025;-83
2023/04/27 07:40:22;;;;;;;11.50;5.43;;;;;;;8.37;65.24;102029.63;5052703;28;20032;-83
2023/04/27 07:42:48;;;;;;;12.45;5.70;;;;;;;8.36;65.25;102031.31;5052103;28;20053;-83
2023/04/27 07:45:16;;;;;;;16.60;6.60;;;;;;;8.44;64.44;102034.00;5052800;28;20420;-82
2023/04/27 07:47:42;;;;;;;13.00;5.78;;;;;;;8.28;64.55;102036.38;5052695;28;20025;-83
2023/04/27 07:50:09;;;;;;;13.80;5.50;;;;;;;8.23;64.36;102026.84;5052223;28;20083;-84
2023/04/27 07:52:34;;;;;;;14.82;5.65;;;;;;;8.27;64.27;102021.75;5052200;28;20033;-84
2023/04/27 07:55:00;;;;;;;12.80;5.63;;;;;;;8.29;62.56;102026.94;5052230;28;20025;-81
2023/04/27 07:57:26;;;;;;;13.37;5.93;;;;;;;8.25;61.17;102032.91;5052672;28;20017;-82
2023/04/27 07:59:51;;;;;;;13.60;6.30;;;;;;;8.41;64.07;102029.69;5052524;28;20021;-83
2023/04/27 08:02:17;;;;;;;9.77;5.00;;;;;;;8.52;64.70;102031.56;5051368;28;20550;-83
2023/04/27 08:04:42;;;;;;;11.23;5.13;;;;;;;8.68;64.20;102032.63;5052296;28;20432;-83
2023/04/27 08:07:07;;;;;;;12.57;5.27;;;;;;;8.78;62.62;102024.97;5052591;28;20370;-82
2023/04/27 08:09:33;;;;;;;14.13;5.80;;;;;;;8.80;60.53;102036.19;5051281;28;20029;-83
2023/04/27 08:11:58;;;;;;;11.10;5.23;;;;;;;8.87;61.40;102025.94;5052694;28;20021;-83
2023/04/27 08:14:23;;;;;;;12.20;5.33;;;;;;;8.97;62.68;102025.16;5055750;28;20446;-82
2023/04/27 08:16:50;;;;;;;12.13;5.50;;;;;;;9.14;62.02;102032.22;5056121;28;20025;-84
2023/04/27 08:19:16;;;;;;;11.38;4.93;;;;;;;9.15;62.00;102023.59;5056721;28;20025;-81
2023/04/27 08:21:41;;;;;;;9.13;4.40;;;;;;;9.28;62.35;102028.06;5055673;28;20039;-81
2023/04/27 08:24:07;;;;;;;7.30;4.27;;;;;;;9.49;60.68;102029.97;5055362;28;20101;-81
2023/04/27 08:26:32;;;;;;;11.20;4.90;;;;;;;9.66;58.00;102027.53;5055988;28;20032;-81
2023/04/27 08:28:58;;;;;;;11.00;4.83;;;;;;;9.61;60.28;102008.47;5056174;28;20032;-81
2023/04/27 08:31:25;;;;;;;10.77;4.70;;;;;;;9.75;59.39;102024.09;5055292;28;20033;-81
2023/04/27 08:34:00;;;;;;;10.00;4.93;;;;;;;9.73;55.77;102008.53;5056425;28;20028;-81
2023/04/27 08:36:26;;;;;;;11.95;5.50;;;;;;;9.32;54.57;102006.50;5055849;28;20025;-79
2023/04/27 08:38:52;;;;;;;12.55;5.38;;;;;;;9.10;56.00;101992.47;5055435;28;20021;-80
2023/04/27 08:41:22;;;;;;;9.37;4.73;;;;;;;9.24;56.42;102002.97;5055743;28;20384;-80
2023/04/27 08:43:48;;;;;;;9.52;4.22;;;;;;;9.39;57.10;102000.50;5056153;28;20029;-81
2023/04/27 08:46:20;;;;;;;6.65;3.78;;;;;;;9.58;57.46;101995.47;5055564;28;20032;-84
2023/04/27 08:48:49;;;;;;;12.68;5.10;;;;;;;9.58;53.17;102000.66;5055755;28;20021;-81
2023/04/27 08:51:15;;;;;;;8.85;4.20;;;;;;;9.56;55.21;101999.81;5055541;28;20071;-80
2023/04/27 08:53:50;;;;;;;8.18;4.10;;;;;;;9.82;55.68;101999.97;5055672;28;20029;-80
2023/04/27 08:56:17;;;;;;;10.02;4.20;;;;;;;10.05;56.12;102000.09;5055769;28;20025;-80
2023/04/27 08:58:43;;;;;;;8.73;3.90;;;;;;;10.28;55.08;102001.09;5054923;28;20032;-81
2023/04/27 09:01:08;;;;;;;8.37;3.67;;;;;;;10.50;55.27;102002.06;5055763;28;20041;-81
2023/04/27 09:03:35;;;;;;;5.37;3.23;;;;;;;10.69;55.72;102003.00;5055487;28;20138;-81
2023/04/27 09:06:02;;;;;;;5.45;3.22;;;;;;;10.90;54.33;102006.50;5054596;28;20024;-81
2023/04/27 09:08:27;;;;;;;;;;;;;;;11.04;51.20;101999.59;5055442;28;20029;-81
2023/04/27 09:10:53;;;;;;;5.80;3.33;;;;;;;11.08;53.47;102000.47;5055661;28;20003;-80
2023/04/27 09:13:19;;;;;;;5.03;3.30;;;;;;;11.13;50.83;102003.94;5055196;28;20040;-81
2023/04/27 09:15:49;;;;;;;7.00;3.40;;;;;;;11.26;52.95;102003.06;5055546;28;20049;-83
2023/04/27 09:18:22;;;;;;;9.05;4.32;;;;;;;10.92;48.74;102002.19;5055251;28;20021;-82
2023/04/27 09:20:55;;;;;;;9.73;4.32;;;;;;;11.05;51.63;102001.34;5054785;28;20096;-83
2023/04/27 09:23:43;;;;;;;6.63;3.50;;;;;;;11.23;52.10;101995.28;5552992;22;20061;-82
2023/04/27 09:28:47;;;;;;;8.18;4.13;;;;;;;10.97;46.62;101998.72;5294922;22;20509;-81
2023/04/27 09:31:13;;;;;;;7.40;4.00;;;;;;;11.07;46.39;101996.13;5035647;28;20020;-82
2023/04/27 09:33:38;;;;;;;10.17;4.53;;;;;;;11.05;48.22;101993.53;5034534;28;20033;-78
2023/04/27 09:36:05;;;;;;;9.70;4.07;;;;;;;11.05;46.77;101993.53;5035346;28;20394;-82
2023/04/27 09:38:31;;;;;;;8.07;4.35;;;;;;;11.22;47.24;101980.56;5034887;28;20022;-81
2023/04/27 09:43:27;;;;;;;7.05;3.60;;;;;;;11.52;49.24;101986.63;5051373;28;20126;-81
2023/04/27 09:45:53;;;;;;;7.55;3.70;;;;;;;11.74;49.29;101989.19;5055008;28;20079;-81
2023/04/27 09:48:21;;;;;;;7.20;3.50;;;;;;;11.88;49.56;101983.94;5054003;28;20108;-85
2023/04/27 09:50:51;;;;;;;4.97;3.20;;;;;;;11.99;50.56;101970.94;5054935;28;20048;-84
2023/04/27 09:53:34;;;;;;;10.90;4.78;;;;;;;11.92;45.54;101987.44;5054529;28;20057;-83
2023/04/27 09:56:27;;;;;;;12.30;5.35;;;;;;;11.35;44.18;101985.78;5054014;28;20108;-81
2023/04/27 09:59:23;;;;;;;12.07;5.28;;;;;;;11.07;45.83;101978.84;5054258;28;20442;-81
2023/04/27 10:01:54;;;;;;;10.13;4.68;;;;;;;11.21;48.26;101975.34;5053951;28;20037;-81
2023/04/27 10:04:38;;;;;;;6.75;3.78;;;;;;;11.51;49.00;101976.22;5054570;28;20025;-81
2023/04/27 10:07:14;;;;;;;6.97;3.80;;;;;;;11.72;43.52;101967.50;5054511;28;20028;-81
2023/04/27 10:09:45;;;;;;;9.77;4.60;;;;;;;11.46;43.56;101973.63;5053296;28;20210;-81
2023/04/27 10:12:18;;;;;;;10.40;4.72;;;;;;;11.38;44.29;101970.16;5054608;28;20021;-82
2023/04/27 10:14:47;;;;;;;8.30;4.40;;;;;;;11.27;41.80;101972.78;5054522;28;20107;-81
2023/04/27 10:17:12;;;;;;;9.45;4.50;;;;;;;11.04;43.88;101962.34;5053679;28;20160;-81
2023/04/27 10:19:38;;;;;;;8.57;4.40;;;;;;;11.22;45.89;101974.47;5054025;28;20650;-81
2023/04/27 10:22:04;;;;;;;9.60;4.90;;;;;;;11.11;41.89;101980.53;5054523;28;20025;-81
2023/04/27 10:24:39;;;;;;;8.25;4.53;;;;;;;11.24;44.06;101980.56;5053589;28;20037;-82
2023/04/27 10:27:11;;;;;;;9.10;4.47;;;;;;;11.41;44.30;101983.16;5054226;28;20025;-81
2023/04/27 10:29:47;;;;;;;11.82;5.20;;;;;;;11.51;42.84;101986.63;5053770;28;20112;-80
2023/04/27 10:32:23;;;;;;;11.02;5.70;;;;;;;11.44;43.93;101972.75;5053153;28;20033;-81
2023/04/27 10:34:49;;;;;;;10.03;4.87;;;;;;;11.52;42.72;101976.22;5053630;28;20033;-80
2023/04/27 10:37:16;;;;;;;8.90;4.47;;;;;;;11.76;44.10;101978.78;5052550;28;20279;-81
2023/04/27 10:39:42;;;;;;;;;;;;;;;11.88;42.36;101974.41;5053709;28;20032;-81
2023/04/27 10:42:08;;;;;;;9.35;4.50;;;;;;;12.04;42.95;101970.06;5060804;28;20276;-81
2023/04/27 10:44:35;;;;;;;8.32;4.45;;;;;;;12.03;43.50;101968.34;5072518;28;20433;-81
2023/04/27 10:47:01;;;;;;;;;;;;;;;12.22;44.69;101964.78;5073553;28;20370;-81
2023/04/27 10:49:27;;;;;;;;;;;;;;;12.36;42.98;101965.63;5073928;28;20265;-81
2023/04/27 10:51:53;;;;;;;6.80;3.83;;;;;;;12.46;44.07;101969.00;5073129;28;20003;-81
2023/04/27 10:54:26;;;;;;;7.50;4.10;;;;;;;12.63;42.86;101962.00;5073214;28;20055;-81
2023/04/27 10:56:51;;;;;;;9.43;4.95;;;;;;;12.56;41.69;101962.03;5073529;28;20027;-81
2023/04/27 10:59:16;;;;;;;10.40;5.07;;;;;;;12.26;40.97;101954.38;5073003;28;20037;-81
2023/04/27 11:01:48;;;;;;;9.00;4.67;;;;;;;12.45;43.70;101960.34;5073051;28;20048;-81
2023/04/27 11:04:14;;;;;;;6.55;4.00;;;;;;;12.71;41.99;101945.44;5073509;28;20020;-82
2023/04/27 11:06:44;;;;;;;11.67;5.43;;;;;;;12.60;41.11;101943.78;5072713;28;20109;-81
2023/04/27 11:09:10;;;;;;;11.23;5.57;;;;;;;12.35;42.44;101941.28;5073310;28;20094;-81
2023/04/27 11:11:35;;;;;;;13.77;5.90;;;;;;;12.25;41.09;101942.22;5072885;28;20472;-82
2023/04/27 11:14:02;;;;;;;9.00;4.53;;;;;;;12.48;42.50;101931.69;5072754;28;20465;-82
2023/04/27 11:16:31;;;;;;;9.93;4.53;;;;;;;12.76;40.76;101915.03;5073056;28;20103;-82
2023/04/27 11:19:07;;;;;;;10.90;5.10;;;;;;;12.76;42.27;101915.88;5073021;28;20361;-77
2023/04/27 11:21:33;;;;;;;10.32;5.15;;;;;;;12.48;40.17;101928.22;5072811;28;20055;-81
2023/04/27 11:24:05;;;;;;;12.10;5.70;;;;;;;12.15;42.33;101932.72;5073021;28;20054;-81
2023/04/27 11:26:31;;;;;;;11.00;5.60;;;;;;;12.31;39.98;101929.19;5072571;28;20020;-81
2023/04/27 11:29:04;;;;;;;10.17;4.90;;;;;;;12.48;43.36;101920.41;5073420;28;20127;-81
2023/04/27 11:31:50;;;;;;;8.13;4.63;;;;;;;12.82;41.42;101913.25;5072571;28;20032;-81